createdAt,value
2022-08-26T00:02:23.158Z,4.0406
2022-08-26T00:07:34.530Z,4.0406
2022-08-26T00:12:48.006Z,4.0455
2022-08-26T00:18:00.249Z,4.0406
2022-08-26T00:23:12.231Z,4.0406
2022-08-26T00:28:24.920Z,4.0309
2022-08-26T00:33:36.731Z,4.0455
2022-08-26T00:38:49.720Z,4.0309
2022-08-26T00:44:01.740Z,4.0309
2022-08-26T00:49:14.140Z,4.0309
2022-08-26T00:54:28.804Z,4.0309
2022-08-26T00:59:40.141Z,4.0309
2022-08-26T01:04:57.230Z,4.0309
2022-08-26T01:10:11.720Z,4.0309
2022-08-26T01:15:23.395Z,4.0309
2022-08-26T01:20:35.717Z,4.0309
2022-08-26T01:25:50.543Z,4.0309
2022-08-26T01:31:01.726Z,4.026
2022-08-26T01:36:14.019Z,4.026
2022-08-26T01:41:30.238Z,4.026
2022-08-26T01:46:42.226Z,4.026
2022-08-26T01:51:54.283Z,4.026
2022-08-26T01:57:07.433Z,4.026
2022-08-26T02:02:19.373Z,4.026
2022-08-26T02:07:34.286Z,4.026
2022-08-26T02:12:46.185Z,4.026
2022-08-26T02:17:58.514Z,4.026
2022-08-26T02:23:10.594Z,4.026
2022-08-26T02:28:27.663Z,4.026
2022-08-26T02:33:44.374Z,4.0211
2022-08-26T02:38:58.343Z,4.0211
2022-08-26T02:44:10.275Z,4.0309
2022-08-26T02:49:22.693Z,4.0211
2022-08-26T02:54:34.715Z,4.0211
2022-08-26T02:59:47.793Z,4.0211
2022-08-26T03:05:03.554Z,4.0211
2022-08-26T03:10:15.863Z,4.0211
2022-08-26T03:15:27.883Z,4.0211
2022-08-26T03:20:41.975Z,4.0211
2022-08-26T03:25:59.064Z,4.026
2022-08-26T03:31:27.179Z,4.0211
2022-08-26T03:36:37.183Z,4.0162
2022-08-26T03:41:51.289Z,4.0162
2022-08-26T03:47:07.203Z,4.0162
2022-08-26T03:52:21.045Z,4.0162
2022-08-26T03:57:33.473Z,4.0162
2022-08-26T04:02:45.916Z,4.0211
2022-08-26T04:07:59.736Z,4.0162
2022-08-26T04:13:13.094Z,4.0162
2022-08-26T04:18:24.852Z,4.0162
2022-08-26T04:23:49.045Z,4.0162
2022-08-26T04:29:00.343Z,4.0162
2022-08-26T04:34:15.374Z,4.0162
2022-08-26T04:39:28.773Z,4.0162
2022-08-26T04:44:40.560Z,4.0211
2022-08-26T04:49:53.242Z,4.0162
2022-08-26T04:55:09.337Z,4.0162
2022-08-26T05:00:22.026Z,4.0211
2022-08-26T05:05:36.533Z,4.0162
2022-08-26T05:10:47.943Z,4.0162
2022-08-26T05:16:02.713Z,4.0114
2022-08-26T05:21:16.495Z,4.0162
2022-08-26T05:26:28.099Z,4.0114
2022-08-26T05:31:40.666Z,4.0162
2022-08-26T05:36:52.983Z,4.0211
2022-08-26T05:42:05.202Z,4.0114
2022-08-26T05:47:20.678Z,4.0162
2022-08-26T05:52:31.965Z,4.0162
2022-08-26T05:57:44.301Z,4.0114
2022-08-26T06:02:57.196Z,4.0114
2022-08-26T06:08:10.946Z,4.0211
2022-08-26T06:13:25.251Z,4.0114
2022-08-26T06:18:36.647Z,4.0114
2022-08-26T06:23:49.134Z,4.0114
2022-08-26T06:29:05.096Z,4.0114
2022-08-26T06:34:18.984Z,4.0114
2022-08-26T06:39:32.407Z,4.0114
2022-08-26T06:44:46.146Z,4.0162
2022-08-26T06:49:57.798Z,4.0114
2022-08-26T06:55:10.736Z,4.0114
2022-08-26T07:00:22.880Z,4.0114
2022-08-26T07:05:36.176Z,4.0114
2022-08-26T07:10:48.090Z,4.0211
2022-08-26T07:16:06.182Z,4.0114
2022-08-26T07:21:24.396Z,4.0114
2022-08-26T07:26:38.069Z,4.0114
2022-08-26T07:31:49.853Z,4.0114
2022-08-26T07:37:02.947Z,4.0114
2022-08-26T07:42:15.063Z,4.0114
2022-08-26T07:47:27.726Z,4.0162
2022-08-26T07:52:41.516Z,4.0114
2022-08-26T07:57:53.327Z,4.0114
2022-08-26T08:03:06.109Z,4.0114
2022-08-26T08:08:31.979Z,4.0114
2022-08-26T08:13:57.439Z,4.0114
2022-08-26T08:19:07.496Z,4.0114
2022-08-26T08:24:20.827Z,4.0114
2022-08-26T08:29:35.670Z,4.0114
2022-08-26T08:34:47.305Z,4.0114
2022-08-26T08:40:00.564Z,4.0065
2022-08-26T08:45:12.569Z,4.0114
2022-08-26T08:50:26.215Z,4.0114
2022-08-26T08:55:39.525Z,4.0114
2022-08-26T09:00:52.600Z,4.0114
2022-08-26T09:06:05.022Z,4.0065
2022-08-26T09:11:18.280Z,4.0114
2022-08-26T09:16:31.042Z,4.0065
2022-08-26T09:21:44.980Z,4.0065
2022-08-26T09:26:56.979Z,4.0114
2022-08-26T09:32:11.184Z,4.0065
2022-08-26T09:37:23.105Z,4.0114
2022-08-26T09:42:43.432Z,4.0065
2022-08-26T09:48:03.074Z,4.0065
2022-08-26T09:53:31.102Z,4.0114
2022-08-26T09:58:43.442Z,4.0065
2022-08-26T10:03:56.266Z,4.0065
2022-08-26T10:09:11.798Z,4.0065
2022-08-26T10:14:25.966Z,4.0065
2022-08-26T10:19:58.401Z,4.0114
2022-08-26T10:25:07.027Z,4.0114
2022-08-26T10:30:19.801Z,4.0065
2022-08-26T10:35:32.099Z,4.0114
2022-08-26T10:40:44.889Z,4.0065
2022-08-26T10:46:04.908Z,4.0162
2022-08-26T10:51:19.063Z,4.0114
2022-08-26T10:56:34.072Z,4.0114
2022-08-26T11:01:54.834Z,4.0065
2022-08-26T11:07:07.466Z,4.0065
2022-08-26T11:12:22.122Z,4.0114
2022-08-26T11:17:33.732Z,4.0065
2022-08-26T11:22:49.437Z,4.0162
2022-08-26T11:28:02.525Z,4.0455
2022-08-26T11:33:21.035Z,4.0504
2022-08-26T11:54:11.140Z,4.0797
2022-08-26T11:59:23.423Z,4.0748
2022-08-26T12:04:39.025Z,4.0846
2022-08-26T12:09:50.741Z,4.0992
2022-08-26T12:25:26.471Z,4.1431
2022-08-26T12:30:39.041Z,4.1675
2022-08-26T12:35:57.912Z,4.1919
2022-08-26T12:41:12.142Z,4.1236
2022-08-26T12:46:24.952Z,4.109
2022-08-26T12:56:53.613Z,4.1138
2022-08-26T13:02:07.897Z,4.1041
2022-08-26T13:17:40.561Z,4.1578
2022-08-26T13:23:00.096Z,4.1382
2022-08-26T13:33:22.695Z,4.1285
2022-08-26T13:43:46.172Z,4.1285
2022-08-26T13:59:19.670Z,4.1236
2022-08-26T14:04:32.206Z,4.1138
2022-08-26T14:09:44.416Z,4.1138
2022-08-26T14:30:29.164Z,4.1334
2022-08-26T14:35:50.625Z,4.1626
2022-08-26T14:41:01.656Z,4.1724
2022-08-26T14:46:14.851Z,4.1773
2022-08-26T14:51:27.365Z,4.187
2022-08-26T14:56:40.243Z,4.1675
2022-08-26T15:17:25.095Z,4.148
2022-08-26T15:22:37.524Z,4.1431
2022-08-26T15:27:50.634Z,4.1578
2022-08-26T15:33:03.714Z,4.1382
2022-08-26T16:04:09.625Z,4.1334
2022-08-26T16:14:32.225Z,4.1236
2022-08-26T16:19:44.835Z,4.1236
2022-08-26T16:35:17.475Z,4.1138
2022-08-26T16:40:30.547Z,4.1138
2022-08-26T16:50:52.836Z,4.1138
2022-08-26T17:01:15.244Z,4.1138
2022-08-26T17:16:47.696Z,4.109
2022-08-26T17:22:00.225Z,4.1041
2022-08-26T17:27:12.538Z,4.1041
2022-08-26T17:32:24.955Z,4.1041
2022-08-26T17:37:38.765Z,4.1041
2022-08-26T17:42:50.569Z,4.0992
2022-08-26T17:48:03.026Z,4.0992
2022-08-26T17:53:20.585Z,4.0894
2022-08-26T17:58:35.787Z,4.0894
2022-08-26T18:03:48.639Z,4.0846
2022-08-26T18:09:00.988Z,4.0846
2022-08-26T18:14:13.485Z,4.0846
2022-08-26T18:19:25.847Z,4.0846
2022-08-26T18:24:38.296Z,4.0797
2022-08-26T18:29:50.986Z,4.0797
2022-08-26T18:35:03.638Z,4.0797
2022-08-26T18:40:16.443Z,4.0797
2022-08-26T18:45:28.967Z,4.0797
2022-08-26T18:50:47.259Z,4.0797
2022-08-26T18:56:02.706Z,4.0748
2022-08-26T19:01:16.336Z,4.0748
2022-08-26T19:06:28.510Z,4.0797
2022-08-26T19:11:45.144Z,4.0699
2022-08-26T19:16:59.988Z,4.0699
2022-08-26T19:22:12.495Z,4.0699
2022-08-26T19:27:29.366Z,4.0797
2022-08-26T19:32:45.966Z,4.0699
2022-08-26T19:37:58.411Z,4.0699
2022-08-26T19:43:14.936Z,4.0748
2022-08-26T19:48:29.088Z,4.065
2022-08-26T19:53:42.586Z,4.065
2022-08-26T19:58:55.177Z,4.065
2022-08-26T20:04:07.477Z,4.065
2022-08-26T20:09:20.076Z,4.0602
2022-08-26T20:14:33.018Z,4.065
2022-08-26T20:19:45.696Z,4.0602
2022-08-26T20:24:58.239Z,4.0602
2022-08-26T20:30:10.586Z,4.0602
2022-08-26T20:35:23.308Z,4.065
2022-08-26T20:40:37.842Z,4.0602
2022-08-26T20:45:50.643Z,4.065
2022-08-26T20:51:02.996Z,4.0602
2022-08-26T20:56:15.816Z,4.0553
2022-08-26T21:01:28.841Z,4.0553
2022-08-26T21:06:54.835Z,4.0553
2022-08-26T21:12:04.486Z,4.0553
2022-08-26T21:17:16.906Z,4.0553
2022-08-26T21:22:29.557Z,4.0504
2022-08-26T21:27:42.375Z,4.0553
2022-08-26T21:32:55.036Z,4.0504
2022-08-26T21:38:07.936Z,4.0504
2022-08-26T21:43:36.878Z,4.0504
2022-08-26T21:48:51.966Z,4.0504
2022-08-26T21:54:12.500Z,4.0504
2022-08-26T21:59:27.356Z,4.0504
2022-08-26T22:04:39.855Z,4.0504
2022-08-26T22:09:52.255Z,4.0504
2022-08-26T22:15:04.245Z,4.0455
2022-08-26T22:20:17.805Z,4.0553
2022-08-26T22:25:29.825Z,4.0455
2022-08-26T22:30:42.754Z,4.0455
2022-08-26T22:35:54.706Z,4.0455
2022-08-26T22:41:09.489Z,4.0455
2022-08-26T22:46:20.806Z,4.0455
2022-08-26T22:51:32.994Z,4.0455
2022-08-26T22:56:45.086Z,4.0455
2022-08-26T23:01:57.315Z,4.0406
2022-08-26T23:07:09.585Z,4.0406
2022-08-26T23:12:21.855Z,4.0406
2022-08-26T23:17:34.057Z,4.0406
2022-08-26T23:22:46.244Z,4.0406
2022-08-26T23:27:58.385Z,4.0406
2022-08-26T23:33:10.755Z,4.0309
2022-08-26T23:38:22.955Z,4.0455
2022-08-26T23:43:35.250Z,4.0309
2022-08-26T23:48:47.380Z,4.0309
2022-08-26T23:53:59.726Z,4.0309
2022-08-26T23:59:11.805Z,4.0309
